Terminal Aerodrome Forecast
Issued by NWS

Home | Current Version | Previous Version | Text Only | Print | Product List | Glossary On
Versions: 1 2 3 4 5 6 7 8 9 10 11 12 13 14 15 16 17 18 19 20 21 22 23 24 25 26
000
FTAK31 PANC 181130
TAFAEN
TAF
PAEN 181130Z 1812/1912 02008KT P6SM -SHRA SCT050 BKN080
     FM181400 02013KT 6SM -RA BR BKN030 OVC050
     FM182000 36013KT 5SM -RA BR BKN020 OVC040
      TEMPO 1820/1824 BKN015 OVC025
     FM190500 35008KT 6SM -RA BR BKN025 OVC040=

USA.gov is the U.S. government's official web portal to all federal, state and local government web resources and services.